Time;durP1;ratioP1;P1;durP2;ratioP2;P2;SDS_P1;SDS_P2;PMS_P1;PMS_P2;Temp;Humidity;BMP_temperature;BMP_pressure;BME280_temperature;BME280_humidity;BME280_pressure;Samples;Min_cycle;Max_cycle;Signal;HPM_P1;HPM_P2
2023/07/15 00:01:36;;;;;;;6.30;2.50;;;;;;;16.13;80.23;99055.80;108883;1260;74520;-22
2023/07/15 00:04:05;;;;;;;3.80;2.10;;;;;;;15.91;80.81;99064.57;108805;1261;71374;-22
2023/07/15 00:06:33;;;;;;;4.70;2.40;;;;;;;15.67;81.45;99061.73;108705;1262;58888;-22
2023/07/15 00:09:00;;;;;;;5.80;2.60;;;;;;;15.45;81.98;99066.27;108886;1261;58982;-22
2023/07/15 00:11:41;;;;;;;3.00;1.80;;;;;;;15.27;82.62;99063.67;108851;1261;72558;-22
2023/07/15 00:14:18;;;;;;;3.10;2.10;;;;;;;15.72;82.40;99062.44;108774;1267;74326;-22
2023/07/15 00:16:45;;;;;;;5.70;2.10;;;;;;;16.13;81.07;99060.83;108774;1264;72742;-22
2023/07/15 00:19:13;;;;;;;2.70;2.30;;;;;;;16.10;80.54;99058.92;108847;1261;60094;-22
2023/07/15 00:21:40;;;;;;;4.60;2.80;;;;;;;15.86;80.65;99058.94;108890;1261;60486;-22
2023/07/15 00:24:08;;;;;;;3.20;2.20;;;;;;;15.60;81.42;99060.98;108849;1262;72558;-23
2023/07/15 00:26:36;;;;;;;4.20;2.70;;;;;;;15.37;81.97;99064.03;108770;1261;73251;-22
2023/07/15 00:29:05;;;;;;;4.70;1.90;;;;;;;15.21;83.01;99071.60;108762;1262;72782;-22
2023/07/15 00:31:34;;;;;;;8.30;2.90;;;;;;;15.65;82.80;99067.30;108909;1261;60115;-22
2023/07/15 00:34:03;;;;;;;3.70;2.50;;;;;;;16.16;81.11;99067.63;108784;1260;59036;-22
2023/07/15 00:36:31;;;;;;;5.40;2.50;;;;;;;16.16;80.14;99068.11;108856;1262;73873;-23
2023/07/15 00:38:58;;;;;;;4.60;2.90;;;;;;;15.91;80.26;99070.80;108746;1260;74511;-22
2023/07/15 00:41:28;;;;;;;2.70;2.50;;;;;;;15.66;80.51;99072.82;108886;1262;72682;-22
2023/07/15 00:43:58;;;;;;;3.50;2.60;;;;;;;15.39;81.10;99074.20;108700;1260;58818;-22
2023/07/15 00:46:31;;;;;;;3.70;2.30;;;;;;;15.14;81.74;99072.58;108864;1261;60009;-22
2023/07/15 00:49:03;;;;;;;2.90;2.30;;;;;;;15.56;82.35;99072.77;108697;1262;72536;-22
2023/07/15 00:51:35;;;;;;;2.40;1.90;;;;;;;15.99;81.16;99073.36;108643;1262;73268;-22
2023/07/15 00:54:03;;;;;;;3.20;2.20;;;;;;;15.94;80.28;99081.20;108543;1262;72739;-22
2023/07/15 00:56:32;;;;;;;4.10;2.70;;;;;;;15.72;80.75;99082.93;108741;1262;59389;-22
2023/07/15 00:59:03;;;;;;;4.00;2.80;;;;;;;15.44;81.41;99084.66;108727;1262;60046;-22
2023/07/15 01:01:31;;;;;;;8.80;3.60;;;;;;;15.20;82.35;99085.11;108742;1262;73871;-23
2023/07/15 01:04:00;;;;;;;2.70;2.10;;;;;;;15.03;83.07;99087.35;108775;1262;74344;-22
2023/07/15 01:06:28;;;;;;;3.40;2.60;;;;;;;15.47;83.02;99081.02;108664;1268;72678;-22
2023/07/15 01:08:55;;;;;;;6.90;2.80;;;;;;;15.96;81.19;99084.72;108682;1264;60156;-22
2023/07/15 01:11:23;;;;;;;5.70;2.70;;;;;;;15.97;80.48;99081.41;108707;1262;60225;-22
2023/07/15 01:13:50;;;;;;;4.60;2.70;;;;;;;15.77;80.48;99080.68;108610;1270;72655;-22
2023/07/15 01:16:20;;;;;;;6.20;2.90;;;;;;;15.50;81.20;99079.50;108768;1262;73231;-22
2023/07/15 01:18:47;;;;;;;5.10;2.90;;;;;;;15.24;81.82;99079.20;108742;1262;71462;-22
2023/07/15 01:21:15;;;;;;;3.80;2.20;;;;;;;15.06;82.65;99083.27;108807;1262;61698;-22
2023/07/15 01:23:43;;;;;;;4.10;2.20;;;;;;;15.46;82.87;99086.26;108775;1262;59169;-22
2023/07/15 01:26:11;;;;;;;6.30;2.50;;;;;;;15.90;81.24;99086.36;108730;1262;73862;-22
2023/07/15 01:28:39;;;;;;;3.90;2.60;;;;;;;15.88;80.70;99091.10;108812;1262;74355;-23
2023/07/15 01:31:07;;;;;;;7.30;3.10;;;;;;;15.69;80.88;99086.73;108696;1262;72287;-22
2023/07/15 01:33:35;;;;;;;3.40;2.80;;;;;;;15.44;81.45;99090.13;108743;1262;59123;-22
2023/07/15 01:36:04;;;;;;;4.10;3.10;;;;;;;15.18;82.03;99094.43;108690;1262;60062;-22
2023/07/15 01:38:32;;;;;;;2.90;1.90;;;;;;;14.97;82.90;99094.04;108804;1262;72970;-22
2023/07/15 01:41:00;;;;;;;5.30;2.20;;;;;;;15.38;82.91;99097.73;108745;1262;74326;-22
2023/07/15 01:43:27;;;;;;;5.80;2.50;;;;;;;15.83;81.06;99099.33;108763;1262;72699;-22
2023/07/15 01:45:55;;;;;;;7.00;2.70;;;;;;;15.80;80.31;99100.84;108700;1262;58841;-22
2023/07/15 01:48:25;;;;;;;4.90;2.90;;;;;;;15.55;80.36;99102.33;108727;1264;58842;-22
2023/07/15 01:50:56;;;;;;;5.30;3.20;;;;;;;15.22;81.10;99104.85;108674;1263;73853;-22
2023/07/15 01:53:25;;;;;;;5.20;3.50;;;;;;;14.90;82.15;99097.88;108712;1263;73224;-22
2023/07/15 01:55:56;;;;;;;2.90;2.30;;;;;;;14.65;82.84;99102.73;108561;1264;72689;-22
2023/07/15 01:58:27;;;;;;;2.90;2.20;;;;;;;15.04;83.08;99100.70;108639;1264;60087;-22
2023/07/15 02:05:10;;;;;;;5.00;3.00;;;;;;;15.30;81.24;99105.13;108687;1264;72653;-22
2023/07/15 02:07:41;;;;;;;7.20;3.70;;;;;;;15.05;81.49;99103.46;108691;1263;73348;-22
2023/07/15 02:10:11;;;;;;;4.20;3.30;;;;;;;14.80;82.36;99105.91;108668;1264;72681;-22
2023/07/15 02:12:41;;;;;;;2.60;2.30;;;;;;;14.61;83.32;99107.36;108665;1264;60404;-22
2023/07/15 02:15:10;;;;;;;4.10;2.10;;;;;;;15.04;83.50;99109.09;108607;1263;59075;-22
2023/07/15 02:17:42;;;;;;;3.00;2.60;;;;;;;15.52;81.45;99106.09;108529;1263;73914;-22
2023/07/15 02:20:13;;;;;;;6.50;2.80;;;;;;;15.53;80.66;99107.02;108530;1263;74383;-22
2023/07/15 02:22:42;;;;;;;4.40;2.60;;;;;;;15.35;80.87;99110.45;108503;1264;72684;-22
2023/07/15 02:25:13;;;;;;;4.10;3.00;;;;;;;15.13;81.41;99109.15;108644;1264;60134;-22
2023/07/15 02:27:44;;;;;;;4.00;3.10;;;;;;;14.90;81.96;99109.96;108694;1263;58788;-23
2023/07/15 02:30:14;;;;;;;2.10;1.90;;;;;;;14.73;82.48;99117.04;108684;1263;73038;-22
2023/07/15 02:32:45;;;;;;;4.70;2.30;;;;;;;15.18;82.66;99115.44;108647;1263;74373;-22
2023/07/15 02:35:15;;;;;;;4.90;2.50;;;;;;;15.64;80.96;99113.30;108676;1263;71334;-22
2023/07/15 02:37:46;;;;;;;3.20;2.60;;;;;;;15.63;80.04;99114.14;108583;1265;58878;-22
2023/07/15 02:40:17;;;;;;;6.00;2.90;;;;;;;15.40;80.44;99120.55;108702;1264;60034;-22
2023/07/15 02:42:47;;;;;;;6.20;3.60;;;;;;;15.17;80.68;99120.98;108658;1263;73840;-22
2023/07/15 02:45:18;;;;;;;3.80;3.40;;;;;;;14.98;81.47;99118.75;108671;1264;74344;-22
2023/07/15 02:58:11;;;;;;;3.60;2.90;;;;;;;15.93;77.98;99117.91;102628;1293;600233;-21
2023/07/15 03:00:39;;;;;;;3.50;3.00;;;;;;;15.74;78.39;99116.83;104857;1270;61183;-21
2023/07/15 03:03:07;;;;;;;5.90;3.50;;;;;;;15.60;78.73;99117.02;104847;1264;61059;-21
2023/07/15 03:05:36;;;;;;;3.40;2.10;;;;;;;15.55;79.09;99121.34;104865;1264;72180;-21
2023/07/15 03:08:04;;;;;;;3.30;2.10;;;;;;;16.13;78.68;99120.77;104883;1270;74331;-21
2023/07/15 03:10:31;;;;;;;3.10;2.40;;;;;;;16.79;76.75;99119.89;104837;1272;71840;-21
2023/07/15 03:12:59;;;;;;;7.60;2.60;;;;;;;16.98;74.81;99121.92;103149;1269;61279;-22
2023/07/15 03:15:27;;;;;;;3.10;2.80;;;;;;;16.95;74.56;99122.73;104969;1267;61183;-21
2023/07/15 03:17:55;;;;;;;6.30;3.00;;;;;;;16.80;74.46;99121.86;104993;1264;70863;-21
2023/07/15 03:20:23;;;;;;;6.80;2.90;;;;;;;16.64;74.84;99126.15;105075;1269;74286;-21
2023/07/15 03:22:51;;;;;;;4.90;3.00;;;;;;;16.59;75.08;99125.68;105193;1267;71394;-21
2023/07/15 03:25:19;;;;;;;4.30;2.20;;;;;;;16.61;75.34;99130.18;104880;1279;61176;-22
2023/07/15 03:27:48;;;;;;;3.20;2.20;;;;;;;17.26;74.72;99127.54;105159;1267;61057;-22
2023/07/15 03:37:56;;;;;;;4.20;3.10;;;;;;;17.74;72.92;99128.66;102696;1294;600775;-22
2023/07/15 03:40:24;;;;;;;4.60;2.70;;;;;;;17.80;72.94;99130.05;104819;1264;61139;-21
2023/07/15 03:49:32;;;;;;;2.80;2.20;;;;;;;18.62;71.59;99125.21;103190;1289;600199;-21
2023/07/15 03:52:00;;;;;;;3.80;2.80;;;;;;;19.09;71.04;99125.79;104815;1267;61114;-22
2023/07/15 03:54:28;;;;;;;4.00;2.80;;;;;;;19.16;69.54;99126.10;105436;1260;61056;-22
2023/07/15 03:56:56;;;;;;;4.20;2.80;;;;;;;18.98;69.43;99130.59;105361;1263;71777;-22
2023/07/15 03:59:24;;;;;;;7.30;2.80;;;;;;;18.76;69.80;99128.73;105396;1260;74273;-21
2023/07/15 04:01:51;;;;;;;6.10;3.60;;;;;;;18.44;70.27;99134.50;105211;1261;71241;-21
2023/07/15 04:04:19;;;;;;;4.90;3.40;;;;;;;18.00;71.59;99134.23;103482;1258;2743247;-21
2023/07/15 04:06:48;;;;;;;5.50;3.40;;;;;;;17.93;72.69;99135.80;105457;1256;61173;-21
2023/07/15 04:16:53;;;;;;;5.00;2.60;;;;;;;20.25;67.64;99128.46;102661;1295;599853;-21
2023/07/15 04:19:21;;;;;;;4.40;3.00;;;;;;;20.50;66.44;99128.45;104819;1267;61180;-21
2023/07/15 04:21:49;;;;;;;3.30;2.90;;;;;;;20.63;65.80;99126.86;104862;1270;61116;-21
2023/07/15 04:24:16;;;;;;;4.00;3.10;;;;;;;20.68;65.56;99128.08;104837;1270;71024;-21
2023/07/15 04:26:45;;;;;;;6.10;3.20;;;;;;;20.68;65.22;99132.45;104834;1272;74306;-21
2023/07/15 04:29:13;;;;;;;5.10;3.40;;;;;;;20.61;65.08;99134.13;105016;1270;72626;-21
2023/07/15 04:31:42;;;;;;;3.20;2.90;;;;;;;20.55;65.24;99134.91;102624;1264;3496096;-21
2023/07/15 04:41:52;;;;;;;4.90;3.60;;;;;;;20.49;66.45;99143.36;102647;1292;600821;-21
2023/07/15 04:44:20;;;;;;;6.30;3.60;;;;;;;20.46;67.00;99147.05;104853;1266;61114;-21
2023/07/15 04:46:47;;;;;;;7.40;3.80;;;;;;;20.44;67.16;99148.60;104887;1266;61181;-21
2023/07/15 04:49:15;;;;;;;8.10;3.50;;;;;;;20.42;67.23;99146.55;104796;1266;72224;-21
2023/07/15 04:59:23;;;;;;;8.60;2.70;;;;;;;22.21;62.45;99156.14;102623;1291;600137;-22
2023/07/15 05:01:51;;;;;;;6.90;3.10;;;;;;;22.11;61.52;99155.70;104827;1267;61177;-22
2023/07/15 05:04:19;;;;;;;4.30;3.20;;;;;;;21.81;61.87;99156.21;104857;1266;61065;-21
2023/07/15 05:06:46;;;;;;;7.90;3.40;;;;;;;21.77;62.18;99154.24;104802;1266;72277;-22
2023/07/15 05:09:14;;;;;;;4.20;3.30;;;;;;;21.75;63.23;99152.59;104818;1267;73020;-22
2023/07/15 05:19:24;;;;;;;3.80;2.60;;;;;;;21.47;63.03;99160.02;102636;1294;599465;-21
2023/07/15 05:21:52;;;;;;;4.20;2.70;;;;;;;21.56;62.01;99161.88;104838;1270;61206;-21
2023/07/15 05:24:19;;;;;;;3.60;2.50;;;;;;;21.61;61.02;99163.35;104840;1269;61775;-21
2023/07/15 05:34:29;;;;;;;3.80;2.10;;;;;;;21.80;58.24;99164.48;102658;1293;599454;-22
2023/07/15 05:36:57;;;;;;;2.80;2.50;;;;;;;21.84;59.47;99169.52;104859;1263;61119;-21
2023/07/15 05:39:25;;;;;;;3.50;2.20;;;;;;;21.90;58.00;99167.39;104853;1264;61225;-22
2023/07/15 05:49:32;;;;;;;4.30;2.40;;;;;;;22.29;57.06;99168.38;102600;1291;599786;-22
2023/07/15 05:51:59;;;;;;;3.90;1.90;;;;;;;22.36;57.29;99171.90;104838;1272;61158;-21
2023/07/15 05:54:27;;;;;;;4.00;2.20;;;;;;;22.43;56.58;99172.64;104777;1267;61167;-22
2023/07/15 05:56:55;;;;;;;5.00;2.40;;;;;;;22.50;56.05;99170.71;104737;1265;72373;-22
2023/07/15 05:59:22;;;;;;;4.60;2.10;;;;;;;22.59;55.23;99173.02;104710;1267;73313;-22
2023/07/15 06:01:50;;;;;;;3.80;2.10;;;;;;;22.64;55.13;99169.34;105076;1263;71393;-23
2023/07/15 06:04:20;;;;;;;2.30;2.10;;;;;;;22.60;54.44;99172.35;103143;1265;2809889;-23
2023/07/15 06:06:48;;;;;;;2.60;1.80;;;;;;;22.51;55.23;99175.98;105150;1260;61177;-22
2023/07/15 06:09:16;;;;;;;3.50;2.20;;;;;;;22.41;55.22;99178.98;105207;1261;72253;-22
2023/07/15 06:11:43;;;;;;;3.40;2.00;;;;;;;22.35;55.86;99178.14;105192;1266;74344;-22
2023/07/15 06:14:11;;;;;;;3.00;2.30;;;;;;;22.36;54.97;99178.55;105101;1261;71727;-22
2023/07/15 06:24:21;;;;;;;5.90;2.50;;;;;;;22.21;55.90;99187.80;102651;1291;600647;-21
2023/07/15 06:26:48;;;;;;;3.00;2.00;;;;;;;22.29;56.30;99189.62;104991;1267;61100;-21
2023/07/15 06:29:16;;;;;;;5.30;2.40;;;;;;;22.41;55.31;99188.83;105708;1254;61189;-21
2023/07/15 06:39:26;;;;;;;3.60;2.00;;;;;;;22.87;55.14;99187.11;102666;1293;599488;-22
2023/07/15 06:41:54;;;;;;;4.70;2.30;;;;;;;22.67;54.26;99189.60;105084;1267;61117;-23
2023/07/15 06:44:22;;;;;;;4.90;2.00;;;;;;;22.69;54.91;99184.55;104846;1267;61082;-23
2023/07/15 06:46:50;;;;;;;2.90;2.10;;;;;;;22.72;54.62;99182.96;104824;1267;72165;-23
2023/07/15 06:49:18;;;;;;;5.00;2.40;;;;;;;22.78;54.94;99181.90;104978;1267;73073;-23
2023/07/15 06:51:45;;;;;;;2.70;2.00;;;;;;;22.88;54.24;99180.95;104755;1272;72143;-23
2023/07/15 06:54:13;;;;;;;3.00;2.10;;;;;;;22.99;53.98;99181.80;102814;1267;2881148;-23
2023/07/15 06:56:41;;;;;;;2.60;1.70;;;;;;;23.09;52.69;99177.52;104966;1267;61065;-23
2023/07/15 06:59:08;;;;;;;3.10;2.00;;;;;;;22.98;52.83;99179.20;104918;1269;71351;-23
2023/07/15 07:09:18;;;;;;;2.10;1.60;;;;;;;23.02;51.83;99171.77;102705;1293;600263;-23
2023/07/15 07:11:45;;;;;;;12.90;2.00;;;;;;;23.07;51.17;99173.40;104928;1264;61158;-21
2023/07/15 07:14:13;;;;;;;3.40;1.90;;;;;;;23.10;51.97;99174.14;104902;1270;61095;-22
2023/07/15 07:16:41;;;;;;;2.90;2.00;;;;;;;23.19;52.65;99177.44;104826;1273;70010;-22
2023/07/15 07:19:08;;;;;;;3.30;1.90;;;;;;;23.31;52.57;99180.63;104979;1270;73069;-22
2023/07/15 07:29:18;;;;;;;3.30;1.50;;;;;;;23.82;50.54;99179.80;102583;1293;600725;-21
2023/07/15 07:31:45;;;;;;;1.70;1.50;;;;;;;23.89;49.55;99178.71;104825;1267;61094;-21
2023/07/15 07:34:13;;;;;;;1.90;1.40;;;;;;;24.01;47.78;99178.42;104787;1267;61117;-21
2023/07/15 07:36:41;;;;;;;2.30;1.50;;;;;;;24.11;48.83;99183.95;104815;1271;72167;-21
2023/07/15 07:39:08;;;;;;;2.60;1.50;;;;;;;24.25;48.56;99185.90;104809;1267;74148;-21
2023/07/15 07:41:36;;;;;;;4.70;1.60;;;;;;;24.27;47.41;99187.98;104790;1266;71680;-22
2023/07/15 07:44:04;;;;;;;24.10;9.00;;;;;;;24.32;48.09;99189.51;103134;1263;2695979;-21
2023/07/15 07:46:32;;;;;;;6.80;2.20;;;;;;;24.33;48.84;99190.36;105078;1263;61263;-21
2023/07/15 07:49:00;;;;;;;4.90;1.50;;;;;;;24.49;48.01;99188.36;105094;1264;72227;-21
2023/07/15 07:51:28;;;;;;;4.60;1.60;;;;;;;24.50;48.54;99189.20;105013;1264;74318;-21
2023/07/15 07:53:56;;;;;;;4.50;2.40;;;;;;;24.45;48.38;99191.61;104929;1267;72703;-21
2023/07/15 07:56:23;;;;;;;3.80;1.60;;;;;;;24.73;48.51;99190.77;104968;1266;61736;-21
2023/07/15 07:58:57;;;;;;;2.10;1.50;;;;;;;25.08;47.80;99189.11;104792;1270;61173;-21
2023/07/15 08:01:25;;;;;;;2.30;1.50;;;;;;;25.31;46.86;99189.95;104684;1267;73058;-21
2023/07/15 08:03:54;;;;;;;3.20;1.70;;;;;;;25.41;46.69;99186.96;104779;1267;73074;-21
2023/07/15 08:06:22;;;;;;;4.70;1.80;;;;;;;25.42;46.63;99188.96;104738;1264;71416;-21
2023/07/15 08:08:50;;;;;;;3.20;1.90;;;;;;;25.57;45.77;99192.05;104677;1266;61177;-22
2023/07/15 08:11:18;;;;;;;3.20;1.80;;;;;;;25.66;45.26;99188.80;105178;1264;61139;-21
2023/07/15 08:13:45;;;;;;;2.20;1.40;;;;;;;25.48;44.41;99192.82;105039;1264;71753;-22
2023/07/15 08:16:33;;;;;;;1.40;1.20;;;;;;;25.81;45.02;99189.24;105013;1269;74299;-21
2023/07/15 08:19:02;;;;;;;1.80;1.40;;;;;;;26.13;43.66;99187.38;104762;1264;72470;-22
2023/07/15 08:21:30;;;;;;;1.80;1.30;;;;;;;26.32;43.14;99185.39;104787;1269;61257;-21
2023/07/15 08:23:58;;;;;;;1.40;1.20;;;;;;;26.39;42.89;99187.69;104797;1264;61073;-21
2023/07/15 08:26:25;;;;;;;1.50;1.30;;;;;;;26.43;43.97;99188.48;104798;1266;71630;-21
2023/07/15 08:36:39;;;;;;;11.70;6.90;;;;;;;26.51;40.21;99189.90;102675;1290;599524;-22
2023/07/15 08:46:47;;;;;;;2.70;1.20;;;;;;;26.48;42.76;99187.97;102658;1293;600239;-21
2023/07/15 08:49:14;;;;;;;1.90;1.20;;;;;;;26.55;43.03;99187.92;104812;1272;61189;-21
2023/07/15 08:51:46;;;;;;;2.50;1.20;;;;;;;26.62;42.17;99190.23;104778;1267;61212;-21
2023/07/15 08:54:14;;;;;;;2.00;0.90;;;;;;;26.74;40.21;99186.21;104836;1272;70956;-21
2023/07/15 08:56:41;;;;;;;1.50;1.10;;;;;;;26.96;39.29;99184.88;104802;1270;72823;-21
2023/07/15 08:59:12;;;;;;;1.10;0.90;;;;;;;26.95;38.21;99185.39;104800;1269;72731;-22
2023/07/15 09:01:40;;;;;;;2.40;0.80;;;;;;;26.78;38.31;99188.11;102636;1269;61140;-21
2023/07/15 09:04:11;;;;;;;5.40;1.60;;;;;;;26.57;38.33;99190.80;105087;1264;61180;-21
2023/07/15 09:06:39;;;;;;;2.20;1.00;;;;;;;26.79;38.73;99190.55;104875;1271;72119;-21
2023/07/15 09:09:06;;;;;;;1.60;1.00;;;;;;;26.77;38.01;99189.45;104851;1271;73169;-22
2023/07/15 09:11:39;;;;;;;1.80;1.20;;;;;;;27.01;37.94;99185.95;105117;1264;71413;-21
2023/07/15 09:14:16;;;;;;;2.00;1.20;;;;;;;27.25;38.15;99189.71;104783;1267;62336;-22
2023/07/15 09:16:44;;;;;;;2.30;1.50;;;;;;;27.17;39.02;99182.54;104711;1264;61090;-22
2023/07/15 09:19:12;;;;;;;1.80;1.20;;;;;;;27.33;37.81;99181.51;104880;1264;73173;-22
2023/07/15 09:29:20;;;;;;;3.30;1.30;;;;;;;27.51;38.74;99177.35;102681;1293;599941;-22
2023/07/15 09:31:48;;;;;;;2.30;1.20;;;;;;;27.72;37.75;99175.08;104862;1271;61330;-21
2023/07/15 09:34:20;;;;;;;2.30;1.30;;;;;;;27.71;36.78;99175.36;104852;1271;61158;-22
2023/07/15 09:36:48;;;;;;;2.70;1.00;;;;;;;28.03;36.64;99171.23;104705;1271;72183;-22
2023/07/15 09:39:19;;;;;;;2.00;1.30;;;;;;;27.97;35.95;99173.73;104708;1271;72460;-22
2023/07/15 09:42:04;;;;;;;1.20;1.00;;;;;;;27.84;36.19;99178.95;102710;1266;2702968;-23
2023/07/15 09:44:39;;;;;;;2.30;1.20;;;;;;;28.07;36.15;99174.23;105243;1257;61170;-22
2023/07/15 09:47:07;;;;;;;6.20;1.60;;;;;;;27.90;36.40;99172.77;105230;1264;61170;-22
2023/07/15 09:49:35;;;;;;;4.60;1.40;;;;;;;27.99;35.34;99169.56;105551;1257;70871;-22
2023/07/15 09:52:04;;;;;;;4.80;1.40;;;;;;;28.11;36.11;99165.70;105221;1264;72941;-22
2023/07/15 09:54:33;;;;;;;3.10;1.20;;;;;;;28.21;36.45;99165.08;105003;1257;71397;-22
2023/07/15 09:57:12;;;;;;;1.90;1.10;;;;;;;28.61;35.74;99163.50;105273;1258;61160;-22
2023/07/15 09:59:42;;;;;;;1.30;1.10;;;;;;;28.50;34.19;99162.35;105292;1257;61237;-22
2023/07/15 10:09:49;;;;;;;1.20;1.00;;;;;;;28.65;34.31;99168.40;102650;1292;600321;-22
2023/07/15 10:12:17;;;;;;;1.50;0.90;;;;;;;28.81;36.59;99166.86;104836;1269;61196;-21
2023/07/15 10:22:33;;;;;;;1.80;1.00;;;;;;;29.82;32.92;99166.94;102755;1293;600201;-22
2023/07/15 10:25:03;;;;;;;1.60;1.10;;;;;;;29.60;31.53;99169.27;104788;1273;61286;-22
2023/07/15 10:27:31;;;;;;;0.90;0.80;;;;;;;28.91;33.92;99166.67;104780;1269;61088;-21
2023/07/15 10:30:18;;;;;;;2.40;1.20;;;;;;;29.15;33.97;99168.06;104885;1271;72222;-21
2023/07/15 10:33:03;;;;;;;2.90;1.10;;;;;;;29.42;32.59;99168.36;104814;1280;73620;-22
2023/07/15 10:35:32;;;;;;;1.60;1.00;;;;;;;29.77;31.86;99164.89;102849;1263;2792830;-22
2023/07/15 10:38:19;;;;;;;2.70;1.20;;;;;;;30.08;32.15;99164.87;105553;1262;61185;-21
2023/07/15 10:48:27;;;;;;;1.70;1.00;;;;;;;29.56;32.24;99163.89;102642;1294;600308;-22
2023/07/15 10:50:56;;;;;;;5.70;3.00;;;;;;;29.31;32.05;99160.82;104889;1270;61193;-22
2023/07/15 10:53:26;;;;;;;2.50;1.00;;;;;;;29.20;31.64;99160.23;105600;1257;61199;-21
2023/07/15 10:56:00;;;;;;;2.20;1.10;;;;;;;29.19;31.89;99158.83;105542;1260;71022;-21
2023/07/15 10:58:30;;;;;;;3.10;0.90;;;;;;;29.98;31.72;99159.10;105581;1258;74313;-22
2023/07/15 11:01:05;;;;;;;2.50;1.20;;;;;;;30.43;31.45;99158.71;103486;1261;2865225;-22
2023/07/15 11:03:43;;;;;;;5.60;1.20;;;;;;;30.61;31.18;99161.27;105702;1254;61166;-22
2023/07/15 11:06:11;;;;;;;1.90;1.00;;;;;;;30.68;31.32;99159.89;105506;1254;61269;-22
2023/07/15 11:08:40;;;;;;;1.50;0.90;;;;;;;30.79;31.21;99160.89;105676;1254;63380;-21
2023/07/15 11:11:12;;;;;;;1.80;1.10;;;;;;;30.50;29.94;99161.80;105439;1254;64159;-22
2023/07/15 11:13:41;;;;;;;4.10;1.20;;;;;;;30.04;31.18;99165.75;105672;1260;63745;-21
2023/07/15 11:16:09;;;;;;;2.00;1.20;;;;;;;29.55;30.73;99168.55;105652;1260;61122;-22
2023/07/15 11:18:37;;;;;;;1.20;0.90;;;;;;;29.17;30.23;99170.92;105546;1254;61148;-22
2023/07/15 11:21:06;;;;;;;2.50;1.10;;;;;;;28.99;32.40;99167.16;105643;1260;73130;-22
2023/07/15 11:23:33;;;;;;;2.10;1.10;;;;;;;28.72;32.63;99165.89;105730;1255;74260;-21
2023/07/15 11:26:12;;;;;;;1.90;1.10;;;;;;;28.37;33.75;99162.75;105657;1255;72706;-21
2023/07/15 11:28:48;;;;;;;2.60;1.20;;;;;;;28.30;35.97;99159.15;105488;1260;61201;-21
2023/07/15 11:31:19;;;;;;;1.50;0.90;;;;;;;28.08;34.21;99160.18;105548;1257;61158;-21
2023/07/15 11:33:53;;;;;;;4.00;1.40;;;;;;;27.73;35.57;99156.35;105711;1261;70523;-21
2023/07/15 11:36:20;;;;;;;3.40;1.20;;;;;;;27.57;35.48;99155.50;105562;1257;77045;-21
2023/07/15 11:38:48;;;;;;;1.70;1.10;;;;;;;27.61;35.46;99153.00;105666;1254;71373;-21
2023/07/15 11:41:16;;;;;;;1.30;1.20;;;;;;;27.13;35.13;99155.74;105658;1254;61115;-22
2023/07/15 11:43:43;;;;;;;2.40;1.10;;;;;;;26.87;34.82;99154.04;105666;1254;61209;-21
2023/07/15 11:46:11;;;;;;;2.70;1.20;;;;;;;26.57;37.41;99152.15;105662;1257;71776;-24
2023/07/15 11:48:39;;;;;;;1.30;1.00;;;;;;;26.57;37.51;99149.16;105636;1255;73048;-22
2023/07/15 11:51:08;;;;;;;1.40;1.20;;;;;;;26.85;37.57;99145.91;105746;1254;72629;-23
2023/07/15 11:53:37;;;;;;;1.90;1.10;;;;;;;26.87;36.96;99145.33;105751;1254;61078;-25
2023/07/15 11:56:08;;;;;;;2.50;1.20;;;;;;;27.19;36.51;99142.25;105660;1254;61052;-23
2023/07/15 11:58:49;;;;;;;2.40;1.00;;;;;;;27.45;35.65;99137.95;105649;1260;71791;-22
2023/07/15 12:01:25;;;;;;;1.90;1.30;;;;;;;27.75;36.86;99134.42;105696;1254;74317;-22
2023/07/15 12:03:53;;;;;;;3.00;1.10;;;;;;;27.90;34.91;99129.74;105472;1254;72346;-22
2023/07/15 12:06:23;;;;;;;1.90;1.10;;;;;;;27.74;34.62;99130.80;105734;1255;61013;-23
2023/07/15 12:09:01;;;;;;;1.40;1.00;;;;;;;27.52;35.10;99127.41;105672;1260;61039;-23
2023/07/15 12:19:14;;;;;;;2.80;1.70;;;;;;;27.69;36.07;99122.23;102551;1293;599477;-22
2023/07/15 12:21:42;;;;;;;1.60;1.20;;;;;;;27.79;35.80;99120.86;104798;1267;62433;-22
2023/07/15 12:24:09;;;;;;;2.30;1.10;;;;;;;27.73;35.00;99117.38;104797;1266;61125;-22
2023/07/15 12:26:37;;;;;;;4.40;0.90;;;;;;;27.53;34.30;99119.91;104811;1266;72301;-22
2023/07/15 12:29:05;;;;;;;2.30;1.20;;;;;;;27.38;36.21;99124.47;104794;1271;73519;-23
2023/07/15 12:31:34;;;;;;;2.50;1.30;;;;;;;27.28;35.73;99120.34;103715;1270;2825331;-24
2023/07/15 12:34:02;;;;;;;3.10;1.20;;;;;;;27.33;36.46;99116.14;104854;1269;61279;-23
2023/07/15 12:36:29;;;;;;;1.30;1.10;;;;;;;27.60;36.01;99114.47;104863;1266;61180;-22
2023/07/15 12:38:57;;;;;;;1.10;1.00;;;;;;;27.50;34.63;99109.79;104862;1269;70999;-22
2023/07/15 12:41:24;;;;;;;1.80;1.20;;;;;;;27.46;35.57;99111.51;104883;1266;74304;-22
2023/07/15 12:43:52;;;;;;;2.60;1.00;;;;;;;27.35;34.08;99110.92;105122;1266;71405;-22
2023/07/15 12:46:20;;;;;;;1.80;1.10;;;;;;;27.32;34.72;99111.25;104847;1266;61061;-22
2023/07/15 12:48:48;;;;;;;2.00;1.10;;;;;;;27.20;36.05;99110.98;104867;1266;61159;-22
2023/07/15 12:58:55;;;;;;;2.80;1.00;;;;;;;26.98;36.31;99107.45;102683;1292;599899;-21
2023/07/15 13:01:23;;;;;;;2.60;1.60;;;;;;;26.85;38.03;99108.52;104857;1267;61073;-21
2023/07/15 13:03:50;;;;;;;3.20;1.40;;;;;;;26.82;37.52;99105.40;104843;1270;61266;-21
2023/07/15 13:06:19;;;;;;;5.00;1.10;;;;;;;26.96;37.67;99106.54;104837;1264;72298;-21
2023/07/15 13:15:00;;;;;;;2.40;1.30;;;;;;;27.45;36.88;99087.91;102654;1292;600715;-22
2023/07/15 13:17:28;;;;;;;3.40;1.00;;;;;;;27.57;36.40;99086.55;105051;1267;61269;-21
2023/07/15 13:19:56;;;;;;;2.60;1.10;;;;;;;27.62;35.22;99085.33;105108;1269;61250;-21
2023/07/15 13:22:24;;;;;;;1.30;1.00;;;;;;;27.73;34.78;99084.63;104843;1267;72255;-21
2023/07/15 13:24:51;;;;;;;2.80;1.20;;;;;;;27.71;34.67;99083.02;105013;1269;74247;-21
2023/07/15 13:27:19;;;;;;;2.40;1.20;;;;;;;27.70;34.01;99078.36;104829;1267;72650;-21
2023/07/15 13:29:47;;;;;;;2.20;1.20;;;;;;;27.49;33.99;99076.05;103247;1265;2638623;-22
2023/07/15 13:32:15;;;;;;;1.20;1.10;;;;;;;27.48;35.67;99076.09;105269;1263;61148;-21
2023/07/15 13:34:42;;;;;;;3.10;1.30;;;;;;;27.56;35.32;99077.56;105135;1268;70935;-21
2023/07/15 13:37:10;;;;;;;1.40;1.20;;;;;;;27.68;34.61;99075.96;105174;1266;73050;-21
2023/07/15 13:47:16;;;;;;;1.90;1.30;;;;;;;27.69;33.65;99071.14;103006;1286;600195;-21
2023/07/15 13:49:44;;;;;;;2.60;1.30;;;;;;;27.67;35.51;99072.07;104837;1269;61067;-21
2023/07/15 13:52:12;;;;;;;2.10;1.30;;;;;;;27.77;35.34;99072.08;104744;1266;61009;-21
2023/07/15 13:54:40;;;;;;;1.60;1.50;;;;;;;27.47;33.82;99071.67;104741;1266;72239;-21
2023/07/15 13:57:08;;;;;;;2.00;1.20;;;;;;;27.31;34.73;99073.20;104698;1271;73121;-21
2023/07/15 13:59:35;;;;;;;2.20;1.30;;;;;;;27.09;34.62;99068.21;104527;1271;72645;-21
2023/07/15 14:02:04;;;;;;;3.50;1.20;;;;;;;27.11;34.41;99072.26;102691;1266;2926459;-21
2023/07/15 14:04:32;;;;;;;2.00;1.30;;;;;;;27.32;34.32;99068.95;104855;1263;61029;-21
2023/07/15 14:07:00;;;;;;;4.00;1.50;;;;;;;27.37;34.43;99071.80;104780;1264;70826;-23
2023/07/15 14:09:27;;;;;;;7.00;1.90;;;;;;;27.57;36.13;99066.98;104835;1264;74320;-23
2023/07/15 14:11:56;;;;;;;5.60;1.70;;;;;;;27.80;35.43;99070.20;104674;1268;72714;-22
2023/07/15 14:14:23;;;;;;;1.60;1.10;;;;;;;27.76;34.53;99059.81;104735;1266;61144;-22
2023/07/15 14:16:51;;;;;;;3.90;1.40;;;;;;;27.56;33.70;99055.05;104704;1266;61087;-22
2023/07/15 14:19:19;;;;;;;1.80;1.20;;;;;;;27.41;33.45;99057.00;104842;1266;73016;-22
2023/07/15 14:29:46;;;;;;;3.00;1.50;;;;;;;27.49;34.75;99056.06;102556;1290;615225;-22
2023/07/15 14:32:14;;;;;;;2.60;1.20;;;;;;;27.45;35.01;99057.11;105209;1263;61011;-22
2023/07/15 14:34:41;;;;;;;1.70;1.30;;;;;;;27.33;36.13;99062.08;105045;1264;61174;-21
2023/07/15 14:37:08;;;;;;;3.70;1.40;;;;;;;27.17;34.60;99062.02;105216;1264;72043;-22
2023/07/15 14:39:36;;;;;;;2.50;1.60;;;;;;;27.07;34.41;99055.80;105229;1264;74119;-21
2023/07/15 14:42:03;;;;;;;1.80;1.30;;;;;;;27.13;35.16;99057.49;103076;1263;2823824;-22